createdAt,value
2022-09-05T00:01:27.508Z,88.84
2022-09-05T00:04:25.415Z,89.00
2022-09-05T00:07:57.777Z,90.04
2022-09-05T00:10:44.832Z,90.49
2022-09-05T00:14:01.587Z,91.04
2022-09-05T00:17:02.871Z,91.29
2022-09-05T00:24:19.457Z,92.15
2022-09-05T00:24:32.758Z,94.45
2022-09-05T00:26:30.345Z,94.85
2022-09-05T00:31:07.325Z,94.91
2022-09-05T00:32:47.017Z,93.91
2022-09-05T00:35:45.951Z,94.25
2022-09-05T00:38:37.304Z,94.35
2022-09-05T00:41:27.490Z,96.02
2022-09-05T00:44:18.067Z,97.06
2022-09-05T00:47:13.651Z,97.82
2022-09-05T00:50:04.787Z,97.51
2022-09-05T00:53:06.900Z,97.71
2022-09-05T00:56:04.466Z,98.32
2022-09-05T00:59:03.227Z,99.51
2022-09-05T01:01:55.013Z,100.00
2022-09-05T01:04:50.227Z,100.00
2022-09-05T01:07:49.492Z,100.00
2022-09-05T01:10:42.850Z,100.00
2022-09-05T01:13:37.203Z,100.00
2022-09-05T01:16:30.831Z,100.00
2022-09-05T01:19:26.825Z,100.00
2022-09-05T01:22:34.823Z,100.00
2022-09-05T01:25:34.879Z,100.00
2022-09-05T01:29:16.328Z,100.00
2022-09-05T01:31:43.332Z,100.00
2022-09-05T01:34:38.326Z,100.00
2022-09-05T01:37:34.323Z,100.00
2022-09-05T01:40:28.775Z,100.00
2022-09-05T01:43:23.780Z,100.00
2022-09-05T01:46:23.737Z,100.00
2022-09-05T01:49:25.016Z,100.00
2022-09-05T01:52:26.177Z,100.00
2022-09-05T01:55:23.897Z,100.00
2022-09-05T01:58:17.375Z,100.00
2022-09-05T02:01:32.042Z,100.00
2022-09-05T02:04:43.600Z,100.00
2022-09-05T02:07:45.002Z,100.00
2022-09-05T02:11:08.990Z,100.00
2022-09-05T02:14:00.536Z,100.00
2022-09-05T02:16:49.869Z,100.00
2022-09-05T02:19:44.336Z,100.00
2022-09-05T02:22:42.969Z,100.00
2022-09-05T02:26:01.509Z,100.00
2022-09-05T02:28:54.152Z,100.00
2022-09-05T02:31:46.486Z,100.00
2022-09-05T02:34:41.395Z,100.00
2022-09-05T02:40:53.475Z,100.00
2022-09-05T02:45:08.931Z,100.00
2022-09-05T02:45:20.202Z,100.00
2022-09-05T02:47:22.370Z,100.00
2022-09-05T02:55:49.363Z,100.00
2022-09-05T02:57:32.670Z,100.00
2022-09-05T02:57:34.883Z,100.00
2022-09-05T03:00:17.991Z,100.00
2022-09-05T03:03:16.545Z,100.00
2022-09-05T03:06:13.726Z,100.00
2022-09-05T03:09:18.992Z,100.00
2022-09-05T03:12:51.878Z,100.00
2022-09-05T03:16:13.764Z,100.00
2022-09-05T03:19:39.676Z,100.00
2022-09-05T03:23:10.881Z,100.00
2022-09-05T03:26:27.236Z,100.00
2022-09-05T03:29:58.514Z,100.00
2022-09-05T03:33:23.825Z,100.00
2022-09-05T03:36:35.218Z,100.00
2022-09-05T03:39:47.697Z,100.00
2022-09-05T03:43:00.170Z,100.00
2022-09-05T03:46:05.051Z,100.00
2022-09-05T03:51:06.547Z,100.00
2022-09-05T03:57:13.295Z,100.00
2022-09-05T03:57:27.200Z,100.00
2022-09-05T03:59:34.621Z,100.00
2022-09-05T04:05:08.919Z,100.00
2022-09-05T04:08:20.391Z,100.00
2022-09-05T04:08:50.308Z,100.00
2022-09-05T04:11:41.030Z,100.00
2022-09-05T04:14:41.917Z,100.00
2022-09-05T04:17:35.419Z,100.00
2022-09-05T04:20:31.179Z,100.00
2022-09-05T04:23:29.194Z,100.00
2022-09-05T04:26:36.082Z,100.00
2022-09-05T04:29:28.998Z,100.00
2022-09-05T04:32:27.378Z,100.00
2022-09-05T04:35:24.869Z,100.00
2022-09-05T04:38:14.965Z,100.00
2022-09-05T04:41:05.075Z,100.00
2022-09-05T04:43:57.319Z,100.00
2022-09-05T04:46:49.161Z,100.00
2022-09-05T04:49:42.049Z,100.00
2022-09-05T04:52:54.943Z,100.00
2022-09-05T04:55:50.484Z,100.00
2022-09-05T04:59:17.413Z,100.00
2022-09-05T05:06:14.076Z,100.00
2022-09-05T05:06:19.741Z,100.00
2022-09-05T05:08:28.803Z,100.00
2022-09-05T05:17:58.767Z,100.00
2022-09-05T05:18:15.330Z,100.00
2022-09-05T05:18:49.184Z,100.00
2022-09-05T05:21:31.344Z,100.00
2022-09-05T05:24:23.426Z,100.00
2022-09-05T05:27:19.682Z,100.00
2022-09-05T05:30:10.399Z,100.00
2022-09-05T05:33:00.378Z,100.00
2022-09-05T05:35:49.691Z,100.00
2022-09-05T05:38:46.361Z,100.00
2022-09-05T05:41:41.320Z,100.00
2022-09-05T05:44:31.580Z,100.00
2022-09-05T05:47:31.230Z,100.00
2022-09-05T05:50:33.143Z,100.00
2022-09-05T05:53:42.283Z,100.00
2022-09-05T05:56:57.010Z,100.00
2022-09-05T06:00:02.567Z,100.00
2022-09-05T06:03:27.254Z,100.00
2022-09-05T06:06:24.908Z,100.00
2022-09-05T06:14:52.969Z,100.00
2022-09-05T06:14:57.361Z,99.65
2022-09-05T06:16:59.071Z,97.48
2022-09-05T06:22:05.546Z,93.66
2022-09-05T06:24:27.236Z,91.33
2022-09-05T06:27:33.099Z,90.51
2022-09-05T06:30:25.256Z,90.00
2022-09-05T06:33:22.885Z,89.27
2022-09-05T06:36:23.368Z,88.98
2022-09-05T06:39:15.247Z,90.12
2022-09-05T06:42:42.194Z,90.50
2022-09-05T06:45:47.699Z,90.64
2022-09-05T06:49:30.603Z,91.38
2022-09-05T06:52:29.354Z,93.18
2022-09-05T06:55:45.213Z,92.02
2022-09-05T06:59:16.169Z,92.28
2022-09-05T07:02:14.839Z,92.50
2022-09-05T07:05:37.070Z,92.35
2022-09-05T07:08:35.441Z,92.28
2022-09-05T07:11:27.385Z,93.00
2022-09-05T07:14:22.196Z,94.46
2022-09-05T07:17:14.599Z,94.47
2022-09-05T07:20:05.489Z,94.79
2022-09-05T07:22:57.426Z,95.45
2022-09-05T07:26:06.085Z,95.04
2022-09-05T07:28:57.866Z,93.59
2022-09-05T07:31:51.709Z,92.62
2022-09-05T07:34:41.802Z,92.79
2022-09-05T07:37:35.836Z,93.53
2022-09-05T07:40:26.795Z,92.26
2022-09-05T07:43:22.638Z,92.29
2022-09-05T07:46:13.787Z,91.37
2022-09-05T07:49:05.530Z,88.68
2022-09-05T07:56:50.806Z,86.49
2022-09-05T07:57:03.982Z,85.19
2022-09-05T07:58:24.500Z,84.52
2022-09-05T08:01:14.496Z,84.37
2022-09-05T08:04:05.606Z,84.45
2022-09-05T08:07:46.094Z,82.98
2022-09-05T08:10:10.711Z,81.51
2022-09-05T08:13:23.639Z,81.28
2022-09-05T08:16:14.931Z,79.81
2022-09-05T08:19:12.737Z,80.13
2022-09-05T08:22:04.426Z,78.20
2022-09-05T08:25:03.144Z,74.80
2022-09-05T08:28:02.855Z,73.03
2022-09-05T08:30:55.935Z,70.46
2022-09-05T08:33:45.784Z,67.51
2022-09-05T08:36:37.856Z,64.46
2022-09-05T08:39:29.491Z,63.07
2022-09-05T08:42:28.202Z,64.31
2022-09-05T08:46:42.970Z,64.38
2022-09-05T08:48:39.958Z,62.72
2022-09-05T08:51:35.033Z,61.67
2022-09-05T08:54:36.409Z,60.59
2022-09-05T08:57:51.590Z,60.44
2022-09-05T09:00:50.445Z,60.67
2022-09-05T09:04:00.499Z,60.14
2022-09-05T09:07:47.285Z,60.24
2022-09-05T09:10:29.818Z,59.38
2022-09-05T09:13:34.655Z,59.25
2022-09-05T09:16:30.535Z,58.54
2022-09-05T09:19:29.443Z,57.30
2022-09-05T09:22:25.093Z,58.45
2022-09-05T09:25:18.432Z,57.71
2022-09-05T09:28:49.621Z,57.13
2022-09-05T09:31:57.947Z,56.94
2022-09-05T09:34:54.013Z,56.19
2022-09-05T09:38:08.498Z,55.85
2022-09-05T09:41:36.669Z,54.81
2022-09-05T09:45:21.659Z,55.22
2022-09-05T09:48:45.737Z,54.69
2022-09-05T09:51:54.874Z,54.77
2022-09-05T09:55:39.187Z,54.67
2022-09-05T09:58:40.889Z,53.57
2022-09-05T10:01:37.282Z,52.91
2022-09-05T10:10:34.262Z,51.63
2022-09-05T10:10:46.650Z,51.96
2022-09-05T10:12:32.221Z,51.34
2022-09-05T10:15:31.751Z,51.46
2022-09-05T10:18:36.207Z,50.78
2022-09-05T10:21:40.909Z,51.36
2022-09-05T10:25:01.833Z,51.33
2022-09-05T10:28:09.011Z,50.83
2022-09-05T10:32:20.713Z,50.21
2022-09-05T10:35:14.035Z,50.18
2022-09-05T10:37:37.005Z,48.69
2022-09-05T10:40:28.956Z,48.53
2022-09-05T10:43:23.140Z,48.74
2022-09-05T10:46:48.915Z,49.38
2022-09-05T10:49:36.242Z,48.16
2022-09-05T10:52:33.184Z,46.92
2022-09-05T10:55:26.086Z,47.23
2022-09-05T10:58:23.487Z,46.92
2022-09-05T11:02:26.703Z,45.08
2022-09-05T11:04:50.524Z,44.45
2022-09-05T11:07:44.472Z,44.61
2022-09-05T11:10:37.245Z,44.66
2022-09-05T11:13:43.250Z,44.12
2022-09-05T11:16:39.165Z,43.12
2022-09-05T11:19:32.484Z,42.73
2022-09-05T11:22:24.741Z,43.06
2022-09-05T11:25:18.229Z,42.96
2022-09-05T11:28:15.230Z,43.37
2022-09-05T11:31:10.251Z,42.79
2022-09-05T11:39:56.164Z,42.76
2022-09-05T11:40:04.817Z,42.59
2022-09-05T11:41:34.807Z,42.65
2022-09-05T11:44:30.429Z,43.57
2022-09-05T11:47:47.543Z,43.45
2022-09-05T11:51:35.619Z,41.94
2022-09-05T11:54:57.620Z,42.17
2022-09-05T11:57:57.094Z,41.96
2022-09-05T12:00:48.862Z,42.21
2022-09-05T12:04:12.937Z,42.59
2022-09-05T12:07:31.935Z,42.54
2022-09-05T12:10:46.074Z,41.50
2022-09-05T12:13:46.252Z,41.72
2022-09-05T12:16:47.972Z,40.99
2022-09-05T12:19:41.916Z,41.54
2022-09-05T12:22:34.628Z,41.74
2022-09-05T12:27:43.214Z,40.41
2022-09-05T12:36:11.512Z,40.43
2022-09-05T12:40:53.950Z,40.40
2022-09-05T12:41:42.040Z,40.01
2022-09-05T12:42:10.986Z,40.63
2022-09-05T12:42:13.739Z,39.94
2022-09-05T12:45:03.016Z,40.71
2022-09-05T12:47:59.840Z,40.98
2022-09-05T12:50:56.061Z,39.59
2022-09-05T12:53:46.072Z,39.58
2022-09-05T13:02:22.255Z,40.02
2022-09-05T13:03:01.752Z,38.89
2022-09-05T13:03:29.254Z,38.77
2022-09-05T13:06:25.582Z,38.06
2022-09-05T13:09:21.180Z,38.98
2022-09-05T13:15:02.310Z,38.14
2022-09-05T13:15:28.233Z,37.30
2022-09-05T13:18:18.752Z,37.41
2022-09-05T13:21:13.172Z,37.09
2022-09-05T13:24:10.002Z,37.70
2022-09-05T13:27:05.636Z,36.54
2022-09-05T13:30:57.717Z,36.13
2022-09-05T13:38:00.006Z,36.41
2022-09-05T13:38:10.023Z,36.05
2022-09-05T13:39:38.571Z,35.40
2022-09-05T13:42:30.871Z,35.79
2022-09-05T13:45:19.731Z,34.71
2022-09-05T13:48:28.335Z,35.64
2022-09-05T13:51:37.199Z,35.30
2022-09-05T13:54:37.652Z,34.11
2022-09-05T13:57:33.311Z,34.46
2022-09-05T14:00:51.721Z,34.31
2022-09-05T14:05:05.439Z,34.76
2022-09-05T14:08:18.022Z,33.95
2022-09-05T14:11:44.843Z,34.63
2022-09-05T14:17:55.871Z,35.06
2022-09-05T14:21:13.934Z,34.75
2022-09-05T14:24:07.670Z,33.78
2022-09-05T14:27:08.814Z,33.91
2022-09-05T14:29:57.824Z,33.14
2022-09-05T14:37:42.985Z,32.57
2022-09-05T14:37:55.238Z,32.99
2022-09-05T14:40:00.784Z,33.93
2022-09-05T14:43:03.992Z,34.41
2022-09-05T14:46:23.806Z,33.50
2022-09-05T14:49:36.371Z,33.96
2022-09-05T14:52:27.036Z,32.90
2022-09-05T14:55:20.736Z,33.47
2022-09-05T15:02:45.187Z,33.01
2022-09-05T15:02:46.198Z,33.54
2022-09-05T15:04:41.050Z,32.63
2022-09-05T15:07:35.288Z,32.43
2022-09-05T15:12:15.296Z,32.64
2022-09-05T15:13:52.954Z,33.40
2022-09-05T15:16:45.722Z,33.77
2022-09-05T15:20:05.742Z,33.18
2022-09-05T15:22:56.225Z,33.08
2022-09-05T15:25:50.567Z,33.73
2022-09-05T15:28:42.643Z,33.68
2022-09-05T15:31:31.595Z,33.17
2022-09-05T15:34:24.860Z,33.77
2022-09-05T15:37:28.398Z,34.48
2022-09-05T15:40:22.941Z,34.58
2022-09-05T15:43:17.550Z,33.20
2022-09-05T15:46:06.928Z,32.96
2022-09-05T15:48:57.713Z,33.69
2022-09-05T15:51:49.575Z,32.92
2022-09-05T15:54:40.249Z,33.06
2022-09-05T15:57:30.555Z,33.21
2022-09-05T16:00:42.337Z,33.36
2022-09-05T16:06:41.395Z,33.83
2022-09-05T16:10:41.438Z,34.48
2022-09-05T16:10:49.483Z,33.91
2022-09-05T16:13:13.432Z,33.60
2022-09-05T16:23:13.955Z,33.62
2022-09-05T16:23:19.951Z,33.49
2022-09-05T16:23:24.619Z,33.25
2022-09-05T16:25:40.959Z,33.79
2022-09-05T16:28:31.607Z,33.81
2022-09-05T16:31:25.955Z,34.89
2022-09-05T16:34:21.745Z,34.95
2022-09-05T16:37:13.619Z,35.44
2022-09-05T16:40:08.480Z,36.07
2022-09-05T16:43:01.039Z,37.05
2022-09-05T16:45:55.412Z,38.58
2022-09-05T16:48:50.103Z,40.40
2022-09-05T16:51:45.870Z,41.90
2022-09-05T16:54:44.717Z,42.82
2022-09-05T16:57:35.629Z,43.41
2022-09-05T17:00:24.255Z,44.38
2022-09-05T17:03:28.725Z,44.66
2022-09-05T17:06:26.204Z,44.95
2022-09-05T17:09:21.771Z,45.38
2022-09-05T17:12:13.379Z,45.79
2022-09-05T17:15:04.054Z,45.97
2022-09-05T17:18:19.152Z,46.13
2022-09-05T17:21:08.390Z,45.88
2022-09-05T17:29:17.918Z,46.24
2022-09-05T17:29:30.533Z,46.56
2022-09-05T17:34:33.946Z,48.62
2022-09-05T17:37:59.458Z,49.89
2022-09-05T17:41:29.379Z,52.14
2022-09-05T17:44:21.696Z,53.69
2022-09-05T17:47:14.707Z,54.12
2022-09-05T17:50:17.431Z,52.99
2022-09-05T17:53:25.214Z,53.66
2022-09-05T17:56:34.007Z,55.53
2022-09-05T17:59:27.030Z,55.97
2022-09-05T18:02:33.153Z,55.83
2022-09-05T18:06:04.731Z,57.04
2022-09-05T18:08:53.343Z,59.29
2022-09-05T18:11:44.883Z,60.86
2022-09-05T18:14:46.807Z,60.17
2022-09-05T18:17:59.505Z,59.58
2022-09-05T18:24:12.057Z,61.93
2022-09-05T18:27:15.074Z,62.21
2022-09-05T18:30:27.369Z,63.38
2022-09-05T18:34:03.742Z,63.79
2022-09-05T18:36:35.411Z,63.45
2022-09-05T18:39:46.759Z,63.17
2022-09-05T18:42:38.924Z,63.78
2022-09-05T18:45:28.603Z,64.38
2022-09-05T18:48:29.715Z,65.02
2022-09-05T18:51:22.059Z,65.90
2022-09-05T18:54:20.371Z,66.42
2022-09-05T18:57:26.765Z,65.14
2022-09-05T19:00:26.013Z,64.83
2022-09-05T19:03:27.819Z,65.47
2022-09-05T19:06:35.127Z,65.73
2022-09-05T19:09:29.169Z,65.86
2022-09-05T19:12:33.277Z,65.42
2022-09-05T19:15:29.899Z,65.49
2022-09-05T19:18:27.187Z,66.40
2022-09-05T19:21:20.330Z,67.73
2022-09-05T19:24:11.453Z,67.35
2022-09-05T19:28:23.380Z,67.84
2022-09-05T19:37:03.294Z,67.91
2022-09-05T19:37:04.607Z,67.92
2022-09-05T19:37:07.200Z,67.84
2022-09-05T19:43:28.361Z,67.44
2022-09-05T19:47:42.241Z,66.72
2022-09-05T19:47:42.804Z,66.22
2022-09-05T19:49:23.152Z,66.55
2022-09-05T19:52:16.737Z,66.42
2022-09-05T19:55:20.525Z,67.33
2022-09-05T19:58:18.837Z,67.48
2022-09-05T20:01:20.120Z,68.15
2022-09-05T20:04:09.400Z,69.69
2022-09-05T20:06:58.600Z,70.01
2022-09-05T20:09:48.968Z,71.03
2022-09-05T20:12:39.148Z,71.77
2022-09-05T20:15:34.654Z,71.89
2022-09-05T20:18:28.553Z,71.96
2022-09-05T20:21:23.289Z,71.55
2022-09-05T20:24:12.200Z,71.11
2022-09-05T20:27:02.093Z,70.84
2022-09-05T20:29:55.980Z,71.09
2022-09-05T20:32:49.495Z,71.72
2022-09-05T20:42:03.773Z,71.23
2022-09-05T20:43:23.804Z,70.50
2022-09-05T20:43:35.594Z,71.30
2022-09-05T20:45:11.562Z,70.67
2022-09-05T20:54:13.325Z,70.95
2022-09-05T20:54:18.864Z,70.56
2022-09-05T20:54:35.086Z,70.86
2022-09-05T20:57:30.765Z,71.04
2022-09-05T21:00:22.008Z,71.35
2022-09-05T21:03:15.839Z,71.47
2022-09-05T21:06:23.453Z,71.65
2022-09-05T21:09:25.410Z,71.69
2022-09-05T21:12:14.994Z,71.67
2022-09-05T21:15:52.050Z,71.74
2022-09-05T21:18:33.653Z,71.51
2022-09-05T21:21:28.601Z,71.86
2022-09-05T21:24:23.733Z,71.92
2022-09-05T21:27:17.290Z,72.33
2022-09-05T21:30:21.825Z,72.96
2022-09-05T21:33:18.731Z,72.78
2022-09-05T21:36:07.744Z,73.47
2022-09-05T21:38:57.770Z,73.54
2022-09-05T21:41:48.898Z,73.93
2022-09-05T21:47:46.313Z,73.59
2022-09-05T21:47:53.990Z,73.94
2022-09-05T21:50:46.128Z,73.36
2022-09-05T21:59:15.200Z,73.91
2022-09-05T21:59:25.702Z,73.61
2022-09-05T22:00:10.635Z,73.95
2022-09-05T22:03:00.270Z,73.81
2022-09-05T22:05:52.884Z,74.18
2022-09-05T22:09:01.220Z,74.48
2022-09-05T22:11:54.479Z,74.83
2022-09-05T22:14:43.403Z,74.66
2022-09-05T22:17:32.454Z,74.91
2022-09-05T22:20:22.731Z,75.13
2022-09-05T22:23:12.125Z,75.48
2022-09-05T22:26:01.400Z,75.53
2022-09-05T22:28:51.399Z,75.98
2022-09-05T22:31:40.209Z,76.22
2022-09-05T22:34:29.025Z,76.76
2022-09-05T22:37:17.893Z,77.09
2022-09-05T22:40:09.632Z,77.65
2022-09-05T22:42:59.326Z,77.49
2022-09-05T22:45:50.055Z,78.37
2022-09-05T22:48:38.699Z,78.33
2022-09-05T22:51:27.233Z,77.83
2022-09-05T22:54:15.791Z,77.45
2022-09-05T22:57:05.273Z,77.75
2022-09-05T22:59:54.163Z,78.19
2022-09-05T23:02:45.392Z,78.25
2022-09-05T23:05:36.564Z,78.59
2022-09-05T23:08:25.183Z,79.36
2022-09-05T23:11:15.748Z,79.71
2022-09-05T23:14:04.296Z,79.90
2022-09-05T23:16:52.817Z,79.86
2022-09-05T23:19:42.720Z,80.47
2022-09-05T23:22:31.231Z,81.52
2022-09-05T23:25:21.491Z,82.25
2022-09-05T23:28:10.768Z,82.84
2022-09-05T23:31:00.287Z,83.56
2022-09-05T23:33:49.188Z,84.16
2022-09-05T23:36:39.064Z,85.59
2022-09-05T23:39:27.785Z,86.11
2022-09-05T23:42:16.641Z,87.07
2022-09-05T23:45:05.771Z,87.38
2022-09-05T23:47:54.536Z,87.73
2022-09-05T23:50:43.079Z,88.07
2022-09-05T23:53:32.966Z,88.50
2022-09-05T23:56:21.497Z,88.09
2022-09-05T23:59:11.614Z,88.99
